Bonney, New York
Current Conditions -  °F | °C
As of 9:35 PM on Wednesday 22 Oct 2014 (Local Time) from KN03 Reporting Station
Overcast Overcast  
Wind Chill: 41°   Ceiling: 1100
Heat Index: 45°   Visibility: 10mi
Dew Point: 43°   Wind: 7mph
Humidity: 93%   Direction: 10°N
Pressure: 30.08"   Gusts: NA
Location:  42.6914°N, 75.6351°W
Report Text: KN03 230135Z AUTO 01006KT 10SM OVC011 07/06 A3008 RMK AO2
Loading
Personal Weather Stations






























Interactive Weather Map
Tropical Storm Tracking
New forecast layout! Learn more

10-Day Weather Forecast

Advertisements
Track Severe Weather on mobile